Terminal Aerodrome Forecast
Issued by NWS Pocatello, ID

Home | Current Version | Previous Version | Text Only | Print | Product List | Glossary On
Versions: 1 2 3 4 5 6 7 8 9 10 11 12 13 14 15 16 17 18
000
FTUS45 KPIH 011700
TAFPIH
TAF
KPIH 011720Z 0118/0218 25015G25KT P6SM SCT035 BKN100
     FM011900 25010G20KT P6SM BKN050
     FM012300 20006KT P6SM BKN050
     FM020600 18008KT P6SM FEW070
     FM021700 25015G25KT P6SM FEW035 SCT120 SCT200=

USA.gov is the U.S. government's official web portal to all federal, state and local government web resources and services.